createdAt,value
2018-07-13T00:00:13.708Z,7.35
2018-07-13T00:02:42.927Z,7.90
2018-07-13T00:05:12.010Z,7.12
2018-07-13T00:07:40.877Z,8.53
2018-07-13T00:10:10.148Z,7.67
2018-07-13T00:12:38.755Z,7.45
2018-07-13T00:15:11.362Z,6.87
2018-07-13T00:17:40.602Z,6.20
2018-07-13T00:20:09.732Z,6.45
2018-07-13T00:22:39.767Z,7.67
2018-07-13T00:25:08.642Z,6.80
2018-07-13T00:27:37.406Z,6.67
2018-07-13T00:30:06.649Z,7.08
2018-07-13T00:32:36.083Z,8.35
2018-07-13T00:35:05.144Z,7.78
2018-07-13T00:37:34.637Z,7.75
2018-07-13T00:40:03.577Z,7.67
2018-07-13T00:42:32.637Z,14.23
2018-07-13T00:45:02.050Z,8.23
2018-07-13T00:47:31.131Z,10.18
2018-07-13T00:49:59.917Z,8.85
2018-07-13T00:52:29.424Z,8.70
2018-07-13T00:54:58.403Z,8.48
2018-07-13T00:57:28.029Z,7.65
2018-07-13T00:59:57.043Z,7.90
2018-07-13T01:02:25.982Z,8.15
2018-07-13T01:04:54.907Z,14.15
2018-07-13T01:07:24.192Z,10.45
2018-07-13T01:09:53.209Z,12.90
2018-07-13T01:12:22.727Z,22.20
2018-07-13T01:14:51.775Z,9.10
2018-07-13T01:17:24.214Z,11.15
2018-07-13T01:19:53.358Z,10.50
2018-07-13T01:22:22.275Z,6.85
2018-07-13T01:24:51.490Z,9.05
2018-07-13T01:27:20.835Z,8.48
2018-07-13T01:29:49.738Z,7.80
2018-07-13T01:32:19.598Z,9.58
2018-07-13T01:34:49.274Z,10.05
2018-07-13T01:37:18.501Z,15.08
2018-07-13T01:39:47.610Z,9.73
2018-07-13T01:42:16.619Z,11.20
2018-07-13T01:44:45.691Z,10.23
2018-07-13T01:47:14.966Z,11.12
2018-07-13T01:49:43.782Z,7.37
2018-07-13T01:52:12.875Z,14.78
2018-07-13T01:54:42.699Z,10.50
2018-07-13T01:57:11.855Z,12.53
2018-07-13T01:59:40.962Z,10.35
2018-07-13T02:02:09.992Z,8.78
2018-07-13T02:04:38.706Z,8.95
2018-07-13T02:07:07.757Z,13.30
2018-07-13T02:09:37.388Z,8.45
2018-07-13T02:12:06.531Z,8.48
2018-07-13T02:14:35.422Z,9.20
2018-07-13T02:17:05.180Z,8.03
2018-07-13T02:19:34.258Z,8.58
2018-07-13T02:22:03.733Z,8.78
2018-07-13T02:24:33.206Z,9.43
2018-07-13T02:27:02.016Z,8.08
2018-07-13T02:29:30.863Z,7.97
2018-07-13T02:32:00.192Z,7.22
2018-07-13T02:34:28.864Z,7.62
2018-07-13T02:36:58.045Z,7.87
2018-07-13T02:39:27.246Z,8.38
2018-07-13T02:41:55.997Z,9.68
2018-07-13T02:44:24.939Z,9.83
2018-07-13T02:46:54.451Z,8.75
2018-07-13T02:49:23.324Z,8.43
2018-07-13T02:51:52.932Z,9.28
2018-07-13T02:54:22.155Z,27.02
2018-07-13T02:56:51.662Z,16.02
2018-07-13T02:59:20.540Z,14.87
2018-07-13T03:01:49.962Z,15.18
2018-07-13T03:04:19.019Z,16.37
2018-07-13T03:06:48.344Z,21.00
2018-07-13T03:09:17.517Z,23.32
2018-07-13T03:11:46.635Z,24.15
2018-07-13T03:14:16.558Z,10.93
2018-07-13T03:16:45.594Z,9.88
2018-07-13T03:19:14.423Z,9.85
2018-07-13T03:21:43.115Z,8.95
2018-07-13T03:24:12.344Z,13.53
2018-07-13T03:26:41.288Z,9.60
2018-07-13T03:29:10.316Z,20.52
2018-07-13T03:31:39.932Z,10.82
2018-07-13T03:34:09.523Z,10.45
2018-07-13T03:36:38.593Z,10.82
2018-07-13T03:39:07.979Z,7.50
2018-07-13T03:41:37.131Z,13.65
2018-07-13T03:44:06.940Z,13.78
2018-07-13T03:46:36.356Z,12.07
2018-07-13T03:49:05.231Z,12.00
2018-07-13T03:51:34.539Z,11.43
2018-07-13T03:54:03.582Z,22.58
2018-07-13T03:56:32.819Z,11.20
2018-07-13T03:59:01.847Z,11.60
2018-07-13T04:01:31.135Z,12.53
2018-07-13T04:03:59.918Z,19.60
2018-07-13T04:06:28.640Z,18.12
2018-07-13T04:08:58.139Z,23.00
2018-07-13T04:11:27.821Z,11.35
2018-07-13T04:13:57.233Z,13.08
2018-07-13T04:16:26.669Z,26.42
2018-07-13T04:18:56.246Z,16.62
2018-07-13T04:21:25.346Z,24.35
2018-07-13T04:23:55.080Z,17.95
2018-07-13T04:26:24.076Z,10.45
2018-07-13T04:28:53.253Z,9.73
2018-07-13T04:31:22.563Z,24.05
2018-07-13T04:33:51.447Z,18.50
2018-07-13T04:36:20.122Z,15.72
2018-07-13T04:38:49.166Z,23.65
2018-07-13T04:41:18.218Z,19.30
2018-07-13T04:43:47.113Z,18.65
2018-07-13T04:46:17.351Z,20.15
2018-07-13T04:48:46.522Z,19.92
2018-07-13T04:51:15.493Z,13.90
2018-07-13T04:53:44.845Z,20.48
2018-07-13T04:56:14.253Z,20.62
2018-07-13T04:58:43.544Z,17.05
2018-07-13T05:01:13.051Z,18.02
2018-07-13T05:03:42.346Z,12.88
2018-07-13T05:06:11.399Z,17.37
2018-07-13T05:08:41.071Z,19.82
2018-07-13T05:11:10.139Z,15.00
2018-07-13T05:13:39.447Z,18.73
2018-07-13T05:16:09.207Z,21.07
2018-07-13T05:18:38.157Z,14.73
2018-07-13T05:21:07.468Z,15.95
2018-07-13T05:23:36.784Z,16.65
2018-07-13T05:26:06.070Z,21.20
2018-07-13T05:28:35.210Z,16.05
2018-07-13T05:31:04.505Z,22.10
2018-07-13T05:33:33.662Z,20.37
2018-07-13T05:36:02.855Z,26.80
2018-07-13T05:38:32.216Z,20.95
2018-07-13T05:41:01.484Z,16.77
2018-07-13T05:43:30.675Z,19.27
2018-07-13T05:46:04.552Z,18.12
2018-07-13T05:48:34.484Z,25.12
2018-07-13T05:51:03.669Z,16.90
2018-07-13T05:53:32.753Z,17.35
2018-07-13T05:56:02.568Z,17.65
2018-07-13T05:58:31.739Z,16.37
2018-07-13T06:01:00.906Z,20.10
2018-07-13T06:03:31.336Z,19.20
2018-07-13T06:06:01.075Z,17.92
2018-07-13T06:08:32.061Z,20.45
2018-07-13T06:11:03.088Z,20.10
2018-07-13T06:13:34.671Z,17.48
2018-07-13T06:16:06.564Z,19.32
2018-07-13T06:18:35.343Z,19.23
2018-07-13T06:21:04.742Z,20.00
2018-07-13T06:23:34.011Z,17.45
2018-07-13T06:26:03.186Z,17.82
2018-07-13T06:28:32.483Z,18.67
2018-07-13T06:31:01.763Z,18.00
2018-07-13T06:33:30.916Z,21.70
2018-07-13T06:35:59.621Z,17.95
2018-07-13T06:38:28.966Z,18.23
2018-07-13T06:40:59.307Z,18.12
2018-07-13T06:43:28.276Z,18.10
2018-07-13T06:45:57.826Z,17.65
2018-07-13T06:48:26.907Z,16.77
2018-07-13T06:50:55.998Z,17.92
2018-07-13T06:53:24.894Z,19.60
2018-07-13T06:55:54.437Z,17.00
2018-07-13T06:58:35.056Z,18.85
2018-07-13T07:01:06.878Z,17.07
2018-07-13T07:03:42.962Z,22.95
2018-07-13T07:06:13.884Z,19.12
2018-07-13T07:08:47.275Z,18.25
2018-07-13T07:11:16.562Z,19.73
2018-07-13T07:13:46.651Z,16.65
2018-07-13T07:16:16.179Z,17.98
2018-07-13T07:18:44.998Z,16.35
2018-07-13T07:21:13.788Z,16.40
2018-07-13T07:23:42.890Z,18.25
2018-07-13T07:26:12.195Z,19.07
2018-07-13T07:28:41.237Z,16.62
2018-07-13T07:31:10.187Z,15.83
2018-07-13T07:33:39.185Z,15.13
2018-07-13T07:36:08.506Z,16.50
2018-07-13T07:38:37.472Z,17.90
2018-07-13T07:41:06.781Z,15.28
2018-07-13T07:43:35.761Z,15.95
2018-07-13T07:46:04.752Z,14.87
2018-07-13T07:48:33.578Z,16.70
2018-07-13T07:51:02.639Z,15.32
2018-07-13T07:53:31.747Z,16.50
2018-07-13T07:56:02.355Z,14.93
2018-07-13T07:58:31.174Z,14.28
2018-07-13T08:01:00.314Z,14.93
2018-07-13T08:03:29.151Z,16.07
2018-07-13T08:05:58.127Z,16.42
2018-07-13T08:08:27.215Z,14.05
2018-07-13T08:10:56.519Z,12.90
2018-07-13T08:13:25.485Z,15.38
2018-07-13T08:15:54.231Z,13.88
2018-07-13T08:18:23.559Z,13.00
2018-07-13T08:20:52.478Z,14.30
2018-07-13T08:23:21.568Z,14.63
2018-07-13T08:25:51.015Z,15.58
2018-07-13T08:28:20.122Z,14.05
2018-07-13T08:30:51.941Z,14.40
2018-07-13T08:33:21.005Z,14.70
2018-07-13T08:35:49.872Z,15.25
2018-07-13T08:38:19.013Z,12.43
2018-07-13T08:40:48.278Z,12.40
2018-07-13T08:43:17.399Z,10.70
2018-07-13T08:45:46.288Z,11.63
2018-07-13T08:48:15.342Z,11.85
2018-07-13T08:50:44.462Z,13.05
2018-07-13T08:53:13.623Z,13.00
2018-07-13T08:55:42.967Z,14.50
2018-07-13T08:58:11.906Z,13.43
2018-07-13T09:00:41.147Z,14.55
2018-07-13T09:03:10.563Z,13.80
2018-07-13T09:05:40.009Z,13.03
2018-07-13T09:08:08.959Z,13.53
2018-07-13T09:10:38.480Z,12.65
2018-07-13T09:13:07.745Z,13.95
2018-07-13T09:15:36.956Z,11.43
2018-07-13T09:18:06.559Z,14.05
2018-07-13T09:20:35.559Z,14.15
2018-07-13T09:23:04.575Z,13.72
2018-07-13T09:25:33.995Z,13.10
2018-07-13T09:28:03.052Z,12.85
2018-07-13T09:30:31.907Z,12.10
2018-07-13T09:33:00.884Z,13.43
2018-07-13T09:35:29.831Z,13.30
2018-07-13T09:37:59.379Z,13.75
2018-07-13T09:40:28.758Z,13.15
2018-07-13T09:42:58.835Z,15.13
2018-07-13T09:45:27.671Z,11.15
2018-07-13T09:47:56.971Z,12.03
2018-07-13T09:50:25.949Z,12.07
2018-07-13T09:52:55.397Z,11.65
2018-07-13T09:55:24.367Z,12.47
2018-07-13T09:57:53.660Z,9.30
2018-07-13T10:00:22.829Z,10.10
2018-07-13T10:02:52.473Z,9.43
2018-07-13T10:05:21.660Z,8.48
2018-07-13T10:07:50.635Z,9.18
2018-07-13T10:10:19.752Z,9.63
2018-07-13T10:12:48.643Z,8.40
2018-07-13T10:15:17.736Z,7.35
2018-07-13T10:17:46.707Z,8.95
2018-07-13T10:20:15.622Z,9.83
2018-07-13T10:22:45.222Z,10.18
2018-07-13T10:25:14.471Z,10.38
2018-07-13T10:27:43.532Z,10.95
2018-07-13T10:30:13.839Z,10.30
2018-07-13T10:32:44.339Z,10.68
2018-07-13T10:35:13.551Z,10.68
2018-07-13T10:37:42.974Z,10.45
2018-07-13T10:40:11.898Z,9.38
2018-07-13T10:42:40.771Z,9.73
2018-07-13T10:45:09.673Z,9.98
2018-07-13T10:47:40.376Z,14.55
2018-07-13T10:50:09.164Z,9.48
2018-07-13T10:52:38.381Z,10.93
2018-07-13T10:55:09.638Z,11.43
2018-07-13T10:57:38.602Z,9.80
2018-07-13T11:00:08.206Z,7.97
2018-07-13T11:02:37.609Z,8.73
2018-07-13T11:05:06.415Z,8.48
2018-07-13T11:07:35.683Z,7.83
2018-07-13T11:10:05.617Z,8.93
2018-07-13T11:12:34.731Z,8.83
2018-07-13T11:15:03.650Z,8.43
2018-07-13T11:17:33.418Z,9.05
2018-07-13T11:20:02.423Z,8.20
2018-07-13T11:22:31.066Z,9.08
2018-07-13T11:25:00.247Z,7.53
2018-07-13T11:27:29.028Z,9.80
2018-07-13T11:29:57.991Z,7.08
2018-07-13T11:32:27.253Z,8.90
2018-07-13T11:34:56.254Z,9.13
2018-07-13T11:37:25.045Z,6.47
2018-07-13T11:39:54.367Z,4.53
2018-07-13T11:42:23.285Z,5.85
2018-07-13T11:44:52.558Z,8.45
2018-07-13T11:47:21.571Z,7.85
2018-07-13T11:49:51.028Z,5.92
2018-07-13T11:52:20.004Z,5.70
2018-07-13T11:54:49.390Z,7.00
2018-07-13T11:57:18.532Z,7.67
2018-07-13T11:59:47.970Z,9.40
2018-07-13T12:02:17.316Z,10.70
2018-07-13T12:04:46.957Z,9.58
2018-07-13T12:07:15.764Z,12.73
2018-07-13T12:09:44.791Z,10.90
2018-07-13T12:12:14.786Z,9.80
2018-07-13T12:14:44.131Z,10.63
2018-07-13T12:17:13.753Z,12.80
2018-07-13T12:19:42.567Z,14.78
2018-07-13T12:22:11.867Z,12.43
2018-07-13T12:24:41.285Z,14.40
2018-07-13T12:27:10.427Z,12.58
2018-07-13T12:29:39.236Z,13.40
2018-07-13T12:32:08.703Z,13.40
2018-07-13T12:34:38.670Z,14.93
2018-07-13T12:37:08.368Z,12.05
2018-07-13T12:39:37.545Z,12.73
2018-07-13T12:42:06.531Z,13.72
2018-07-13T12:44:35.570Z,14.07
2018-07-13T12:47:04.887Z,13.72
2018-07-13T12:49:33.542Z,13.30
2018-07-13T12:52:02.435Z,13.88
2018-07-13T12:54:31.704Z,14.90
2018-07-13T12:57:00.633Z,14.13
2018-07-13T12:59:30.925Z,13.62
2018-07-13T13:01:59.960Z,14.00
2018-07-13T13:04:28.707Z,14.35
2018-07-13T13:06:57.824Z,13.13
2018-07-13T13:09:27.045Z,12.90
2018-07-13T13:11:55.934Z,13.15
2018-07-13T13:14:25.129Z,16.50
2018-07-13T13:16:54.429Z,12.60
2018-07-13T13:19:23.616Z,12.40
2018-07-13T13:21:52.912Z,13.38
2018-07-13T13:24:21.844Z,13.08
2018-07-13T13:26:50.601Z,11.95
2018-07-13T13:29:22.930Z,12.47
2018-07-13T13:31:57.575Z,13.10
2018-07-13T13:34:26.691Z,13.45
2018-07-13T13:36:55.711Z,14.70
2018-07-13T13:39:24.528Z,12.10
2018-07-13T13:41:53.847Z,10.45
2018-07-13T13:44:22.871Z,11.70
2018-07-13T13:46:51.910Z,11.38
2018-07-13T13:49:21.628Z,10.58
2018-07-13T13:51:50.719Z,11.22
2018-07-13T13:54:19.718Z,13.83
2018-07-13T13:56:49.958Z,10.95
2018-07-13T13:59:19.211Z,9.88
2018-07-13T14:01:48.111Z,12.50
2018-07-13T14:04:17.555Z,16.32
2018-07-13T14:06:46.655Z,18.17
2018-07-13T14:09:15.870Z,19.40
2018-07-13T14:11:45.698Z,19.10
2018-07-13T14:14:14.726Z,17.50
2018-07-13T14:16:43.835Z,18.57
2018-07-13T14:19:13.251Z,19.62
2018-07-13T14:21:42.347Z,16.17
2018-07-13T14:24:11.341Z,18.15
2018-07-13T14:26:40.397Z,19.57
2018-07-13T14:29:09.263Z,19.50
2018-07-13T14:31:38.109Z,18.17
2018-07-13T14:34:08.026Z,19.02
2018-07-13T14:36:36.998Z,20.50
2018-07-13T14:39:08.363Z,16.57
2018-07-13T14:41:37.818Z,19.12
2018-07-13T14:44:06.978Z,18.50
2018-07-13T14:46:36.095Z,32.70
2018-07-13T14:49:05.075Z,17.25
2018-07-13T14:51:34.455Z,18.45
2018-07-13T14:54:03.880Z,17.10
2018-07-13T14:56:32.976Z,15.45
2018-07-13T14:59:01.993Z,15.98
2018-07-13T15:01:31.480Z,18.98
2018-07-13T15:04:00.594Z,15.23
2018-07-13T15:06:29.772Z,15.23
2018-07-13T15:08:59.443Z,16.27
2018-07-13T15:11:28.472Z,16.23
2018-07-13T15:13:57.467Z,14.85
2018-07-13T15:16:26.703Z,13.30
2018-07-13T15:18:55.874Z,15.15
2018-07-13T15:21:24.971Z,12.88
2018-07-13T15:23:54.903Z,12.43
2018-07-13T15:26:23.944Z,16.87
2018-07-13T15:28:52.883Z,12.65
2018-07-13T15:31:22.004Z,14.53
2018-07-13T15:33:50.971Z,13.00
2018-07-13T15:36:20.066Z,13.28
2018-07-13T15:38:49.456Z,13.93
2018-07-13T15:41:18.359Z,14.20
2018-07-13T15:43:47.472Z,12.00
2018-07-13T15:46:16.589Z,13.72
2018-07-13T15:48:45.635Z,14.98
2018-07-13T15:51:14.469Z,12.85
2018-07-13T15:53:44.318Z,12.75
2018-07-13T15:56:14.367Z,15.43
2018-07-13T15:58:43.555Z,15.55
2018-07-13T16:01:12.461Z,12.37
2018-07-13T16:03:41.487Z,12.60
2018-07-13T16:06:10.749Z,13.85
2018-07-13T16:08:39.896Z,14.47
2018-07-13T16:11:08.956Z,19.37
2018-07-13T16:13:37.971Z,16.20
2018-07-13T16:16:07.150Z,13.13
2018-07-13T16:18:36.414Z,13.53
2018-07-13T16:21:05.345Z,13.43
2018-07-13T16:23:34.416Z,12.95
2018-07-13T16:26:03.334Z,13.00
2018-07-13T16:28:32.691Z,12.82
2018-07-13T16:31:01.747Z,12.78
2018-07-13T16:33:31.512Z,13.50
2018-07-13T16:36:00.830Z,10.05
2018-07-13T16:38:30.555Z,9.48
2018-07-13T16:40:59.795Z,13.45
2018-07-13T16:43:30.703Z,13.60
2018-07-13T16:46:00.792Z,12.60
2018-07-13T16:48:29.614Z,14.33
2018-07-13T16:50:58.633Z,13.28
2018-07-13T16:53:27.808Z,14.05
2018-07-13T16:55:56.701Z,13.65
2018-07-13T16:58:25.901Z,14.78
2018-07-13T17:00:54.831Z,14.35
2018-07-13T17:03:24.042Z,13.43
2018-07-13T17:05:53.904Z,14.73
2018-07-13T17:08:24.173Z,14.33
2018-07-13T17:10:53.208Z,12.75
2018-07-13T17:13:22.187Z,14.07
2018-07-13T17:15:51.014Z,15.23
2018-07-13T17:18:20.299Z,14.93
2018-07-13T17:20:49.264Z,15.35
2018-07-13T17:23:18.470Z,14.20
2018-07-13T17:25:47.163Z,15.63
2018-07-13T17:28:16.267Z,14.58
2018-07-13T17:30:45.198Z,12.33
2018-07-13T17:33:14.187Z,15.32
2018-07-13T17:35:42.994Z,15.50
2018-07-13T17:38:12.011Z,15.48
2018-07-13T17:40:42.083Z,16.70
2018-07-13T17:43:11.254Z,18.35
2018-07-13T17:45:40.159Z,19.00
2018-07-13T17:48:09.206Z,16.90
2018-07-13T17:50:38.123Z,16.93
2018-07-13T17:53:07.087Z,22.48
2018-07-13T17:55:36.247Z,18.27
2018-07-13T17:58:05.247Z,16.77
2018-07-13T18:00:34.900Z,17.67
2018-07-13T18:03:03.962Z,16.00
2018-07-13T18:05:33.023Z,17.23
2018-07-13T18:08:02.139Z,20.60
2018-07-13T18:10:31.631Z,18.87
2018-07-13T18:13:00.815Z,22.37
2018-07-13T18:15:30.040Z,19.50
2018-07-13T18:17:59.124Z,20.90
2018-07-13T18:20:28.292Z,19.27
2018-07-13T18:22:57.670Z,19.62
2018-07-13T18:25:26.805Z,23.00
2018-07-13T18:27:55.716Z,19.87
2018-07-13T18:30:24.888Z,18.92
2018-07-13T18:32:53.819Z,20.97
2018-07-13T18:35:22.623Z,19.60
2018-07-13T18:37:51.806Z,21.82
2018-07-13T18:40:20.688Z,22.77
2018-07-13T18:42:49.669Z,23.18
2018-07-13T18:45:18.898Z,30.62
2018-07-13T18:47:47.593Z,28.55
2018-07-13T18:50:16.680Z,24.52
2018-07-13T18:52:45.599Z,24.72
2018-07-13T18:55:14.451Z,27.02
2018-07-13T18:57:43.331Z,23.85
2018-07-13T19:00:12.589Z,26.52
2018-07-13T19:02:41.643Z,20.08
2018-07-13T19:05:10.432Z,21.48
2018-07-13T19:07:39.753Z,23.35
2018-07-13T19:10:08.645Z,22.00
2018-07-13T19:12:37.436Z,20.88
2018-07-13T19:15:06.799Z,21.70
2018-07-13T19:17:35.721Z,26.10
2018-07-13T19:20:04.593Z,25.00
2018-07-13T19:22:33.600Z,26.12
2018-07-13T19:25:02.263Z,22.20
2018-07-13T19:27:31.343Z,23.60
2018-07-13T19:30:00.761Z,23.15
2018-07-13T19:32:29.585Z,26.48
2018-07-13T19:34:58.447Z,22.00
2018-07-13T19:37:28.530Z,23.95
2018-07-13T19:39:57.582Z,31.55
2018-07-13T19:42:27.284Z,26.52
2018-07-13T19:44:56.603Z,28.27
2018-07-13T19:47:26.603Z,27.40
2018-07-13T19:49:55.924Z,22.45
2018-07-13T19:52:25.735Z,24.52
2018-07-13T19:54:55.158Z,26.85
2018-07-13T19:57:24.371Z,26.50
2018-07-13T19:59:53.649Z,29.52
2018-07-13T20:02:22.603Z,28.23
2018-07-13T20:04:51.617Z,28.77
2018-07-13T20:07:20.629Z,29.00
2018-07-13T20:09:49.702Z,26.27
2018-07-13T20:12:19.139Z,27.37
2018-07-13T20:14:48.142Z,26.85
2018-07-13T20:17:17.030Z,25.23
2018-07-13T20:19:45.883Z,24.90
2018-07-13T20:22:15.192Z,32.25
2018-07-13T20:24:44.091Z,24.30
2018-07-13T20:27:12.795Z,24.02
2018-07-13T20:29:41.918Z,25.00
2018-07-13T20:32:10.877Z,21.30
2018-07-13T20:34:40.453Z,17.90
2018-07-13T20:37:10.096Z,19.00
2018-07-13T20:39:39.354Z,20.43
2018-07-13T20:42:08.571Z,16.12
2018-07-13T20:44:37.398Z,19.17
2018-07-13T20:47:06.852Z,17.85
2018-07-13T20:49:35.806Z,15.45
2018-07-13T20:52:06.106Z,15.45
2018-07-13T20:54:35.202Z,14.05
2018-07-13T20:57:03.852Z,16.17
2018-07-13T20:59:32.904Z,14.58
2018-07-13T21:02:01.791Z,15.15
2018-07-13T21:04:30.862Z,15.48
2018-07-13T21:07:00.038Z,16.00
2018-07-13T21:09:28.914Z,13.88
2018-07-13T21:11:57.743Z,20.88
2018-07-13T21:14:26.574Z,12.47
2018-07-13T21:16:55.635Z,13.35
2018-07-13T21:19:25.230Z,13.20
2018-07-13T21:21:54.363Z,12.85
2018-07-13T21:24:23.648Z,13.08
2018-07-13T21:26:52.587Z,12.53
2018-07-13T21:29:21.554Z,13.43
2018-07-13T21:31:50.735Z,12.05
2018-07-13T21:34:19.859Z,13.78
2018-07-13T21:36:48.731Z,12.28
2018-07-13T21:39:17.722Z,12.80
2018-07-13T21:41:46.465Z,13.32
2018-07-13T21:44:15.841Z,12.93
2018-07-13T21:46:44.882Z,14.03
2018-07-13T21:49:13.879Z,14.15
2018-07-13T21:51:43.208Z,12.90
2018-07-13T21:54:12.082Z,12.20
2018-07-13T21:56:41.591Z,14.20
2018-07-13T21:59:10.723Z,14.00
2018-07-13T22:01:39.760Z,14.85
2018-07-13T22:04:08.545Z,15.23
2018-07-13T22:06:37.754Z,12.82
2018-07-13T22:09:07.047Z,13.35
2018-07-13T22:11:36.075Z,14.18
2018-07-13T22:14:05.173Z,13.60
2018-07-13T22:16:34.778Z,14.90
2018-07-13T22:19:04.091Z,13.38
2018-07-13T22:21:33.627Z,13.28
2018-07-13T22:24:02.940Z,19.00
2018-07-13T22:26:31.826Z,12.88
2018-07-13T22:29:00.699Z,14.83
2018-07-13T22:31:29.995Z,14.43
2018-07-13T22:33:58.867Z,11.35
2018-07-13T22:36:27.800Z,11.15
2018-07-13T22:38:56.849Z,10.95
2018-07-13T22:41:26.262Z,10.55
2018-07-13T22:43:55.645Z,9.03
2018-07-13T22:46:25.266Z,9.28
2018-07-13T22:48:54.334Z,9.80
2018-07-13T22:51:23.595Z,11.63
2018-07-13T22:53:53.311Z,14.53
2018-07-13T22:56:22.708Z,11.53
2018-07-13T22:58:51.716Z,9.45
2018-07-13T23:01:21.263Z,8.38
2018-07-13T23:03:50.019Z,7.83
2018-07-13T23:06:19.188Z,7.55
2018-07-13T23:08:48.152Z,7.45
2018-07-13T23:11:17.160Z,6.78
2018-07-13T23:13:46.217Z,7.25
2018-07-13T23:16:15.235Z,7.80
2018-07-13T23:18:43.987Z,6.60
2018-07-13T23:21:13.465Z,5.72
2018-07-13T23:23:42.476Z,5.22
2018-07-13T23:26:11.313Z,5.90
2018-07-13T23:28:41.788Z,5.78
2018-07-13T23:31:10.871Z,5.00
2018-07-13T23:33:40.143Z,5.53
2018-07-13T23:36:09.276Z,4.00
2018-07-13T23:38:38.378Z,6.28
2018-07-13T23:41:07.565Z,6.85
2018-07-13T23:43:36.766Z,4.00
2018-07-13T23:46:05.962Z,3.10
2018-07-13T23:48:35.150Z,3.25
2018-07-13T23:51:05.568Z,3.02
2018-07-13T23:53:34.577Z,2.42
2018-07-13T23:56:04.388Z,3.30
2018-07-13T23:58:33.699Z,5.03
